sensor_id;sensor_type;location;lat;lon;timestamp;temperature;humidity
53498;DHT22;39382;47.168;16.008;2023-02-28T00:00:47;-1.20;94.60
53498;DHT22;39382;47.168;16.008;2023-02-28T00:03:13;-0.60;95.00
53498;DHT22;39382;47.168;16.008;2023-02-28T00:05:39;-1.20;95.10
53498;DHT22;39382;47.168;16.008;2023-02-28T00:08:05;-1.20;95.70
53498;DHT22;39382;47.168;16.008;2023-02-28T00:10:31;-1.10;95.60
53498;DHT22;39382;47.168;16.008;2023-02-28T00:13:03;-1.00;95.30
53498;DHT22;39382;47.168;16.008;2023-02-28T00:15:30;-1.10;95.20
53498;DHT22;39382;47.168;16.008;2023-02-28T00:17:56;-1.10;95.50
53498;DHT22;39382;47.168;16.008;2023-02-28T00:20:22;-1.10;95.70
53498;DHT22;39382;47.168;16.008;2023-02-28T00:22:50;-1.30;95.80
53498;DHT22;39382;47.168;16.008;2023-02-28T00:25:18;-1.30;96.00
53498;DHT22;39382;47.168;16.008;2023-02-28T00:27:44;-1.30;96.20
53498;DHT22;39382;47.168;16.008;2023-02-28T00:30:13;-1.40;96.40
53498;DHT22;39382;47.168;16.008;2023-02-28T00:32:39;-1.40;96.70
53498;DHT22;39382;47.168;16.008;2023-02-28T00:35:05;-1.40;96.70
53498;DHT22;39382;47.168;16.008;2023-02-28T00:37:32;-1.50;97.10
53498;DHT22;39382;47.168;16.008;2023-02-28T00:39:57;-1.60;97.60
53498;DHT22;39382;47.168;16.008;2023-02-28T00:42:23;-1.60;98.00
53498;DHT22;39382;47.168;16.008;2023-02-28T00:44:49;-1.70;98.10
53498;DHT22;39382;47.168;16.008;2023-02-28T00:47:15;-1.70;98.20
53498;DHT22;39382;47.168;16.008;2023-02-28T00:49:41;-1.80;98.40
53498;DHT22;39382;47.168;16.008;2023-02-28T00:52:07;-1.80;98.60
53498;DHT22;39382;47.168;16.008;2023-02-28T00:54:32;-1.70;99.10
53498;DHT22;39382;47.168;16.008;2023-02-28T00:56:58;-1.80;99.30
53498;DHT22;39382;47.168;16.008;2023-02-28T00:59:24;-1.80;99.50
53498;DHT22;39382;47.168;16.008;2023-02-28T01:01:50;-1.90;99.80
53498;DHT22;39382;47.168;16.008;2023-02-28T01:04:16;-1.90;99.90
53498;DHT22;39382;47.168;16.008;2023-02-28T01:06:41;-1.90;99.90
53498;DHT22;39382;47.168;16.008;2023-02-28T01:09:08;-2.00;99.90
53498;DHT22;39382;47.168;16.008;2023-02-28T01:11:34;-2.00;99.90
53498;DHT22;39382;47.168;16.008;2023-02-28T01:14:00;-2.00;99.90
53498;DHT22;39382;47.168;16.008;2023-02-28T01:16:26;-1.80;99.90
53498;DHT22;39382;47.168;16.008;2023-02-28T01:18:52;-2.10;99.90
53498;DHT22;39382;47.168;16.008;2023-02-28T01:21:20;-1.50;99.90
53498;DHT22;39382;47.168;16.008;2023-02-28T01:23:46;-2.20;99.90
53498;DHT22;39382;47.168;16.008;2023-02-28T01:26:21;-2.20;99.90
53498;DHT22;39382;47.168;16.008;2023-02-28T01:28:48;-2.30;99.90
53498;DHT22;39382;47.168;16.008;2023-02-28T01:31:14;-2.30;99.90
53498;DHT22;39382;47.168;16.008;2023-02-28T01:33:40;-2.20;99.90
53498;DHT22;39382;47.168;16.008;2023-02-28T01:36:18;-2.30;99.90
53498;DHT22;39382;47.168;16.008;2023-02-28T01:38:45;-2.40;99.90
53498;DHT22;39382;47.168;16.008;2023-02-28T01:41:26;-2.40;99.90
53498;DHT22;39382;47.168;16.008;2023-02-28T01:43:59;-2.40;99.90
53498;DHT22;39382;47.168;16.008;2023-02-28T01:46:24;-2.40;99.90
53498;DHT22;39382;47.168;16.008;2023-02-28T01:49:15;-2.50;99.90
53498;DHT22;39382;47.168;16.008;2023-02-28T01:51:45;-2.50;99.90
53498;DHT22;39382;47.168;16.008;2023-02-28T01:54:29;-2.50;99.90
53498;DHT22;39382;47.168;16.008;2023-02-28T01:57:09;-2.50;99.90
53498;DHT22;39382;47.168;16.008;2023-02-28T01:59:51;-2.50;99.90
53498;DHT22;39382;47.168;16.008;2023-02-28T02:02:20;-2.40;99.90
53498;DHT22;39382;47.168;16.008;2023-02-28T02:07:36;-2.30;99.90
53498;DHT22;39382;47.168;16.008;2023-02-28T02:10:10;-2.30;99.90
53498;DHT22;39382;47.168;16.008;2023-02-28T02:15:45;-2.20;99.90
53498;DHT22;39382;47.168;16.008;2023-02-28T02:18:28;-2.10;99.90
53498;DHT22;39382;47.168;16.008;2023-02-28T02:37:00;-2.00;99.90
53498;DHT22;39382;47.168;16.008;2023-02-28T02:40:21;-2.00;99.90
53498;DHT22;39382;47.168;16.008;2023-02-28T02:42:28;-1.90;99.90
53498;DHT22;39382;47.168;16.008;2023-02-28T02:45:14;-2.00;99.90
53498;DHT22;39382;47.168;16.008;2023-02-28T02:47:43;-1.90;99.90
53498;DHT22;39382;47.168;16.008;2023-02-28T02:50:14;-1.90;99.90
53498;DHT22;39382;47.168;16.008;2023-02-28T02:52:49;-1.90;99.90
53498;DHT22;39382;47.168;16.008;2023-02-28T02:55:17;-1.90;99.90
53498;DHT22;39382;47.168;16.008;2023-02-28T02:57:53;-1.90;99.90
53498;DHT22;39382;47.168;16.008;2023-02-28T03:00:24;-1.90;99.90
53498;DHT22;39382;47.168;16.008;2023-02-28T03:02:53;-1.90;99.90
53498;DHT22;39382;47.168;16.008;2023-02-28T03:05:25;-1.90;99.90
53498;DHT22;39382;47.168;16.008;2023-02-28T03:07:51;-1.90;99.90
53498;DHT22;39382;47.168;16.008;2023-02-28T03:10:38;-1.90;99.90
53498;DHT22;39382;47.168;16.008;2023-02-28T03:13:41;-1.90;99.90
53498;DHT22;39382;47.168;16.008;2023-02-28T03:16:43;-1.90;99.90
53498;DHT22;39382;47.168;16.008;2023-02-28T03:19:21;-2.00;99.90
53498;DHT22;39382;47.168;16.008;2023-02-28T03:24:34;-1.90;99.90
53498;DHT22;39382;47.168;16.008;2023-02-28T03:27:21;-1.90;99.90
53498;DHT22;39382;47.168;16.008;2023-02-28T03:30:13;-1.90;99.90
53498;DHT22;39382;47.168;16.008;2023-02-28T03:32:50;-1.80;99.90
53498;DHT22;39382;47.168;16.008;2023-02-28T03:35:21;-1.60;99.90
53498;DHT22;39382;47.168;16.008;2023-02-28T03:37:51;-1.70;99.90
53498;DHT22;39382;47.168;16.008;2023-02-28T03:40:20;-1.70;99.90
53498;DHT22;39382;47.168;16.008;2023-02-28T03:42:50;-1.60;99.90
53498;DHT22;39382;47.168;16.008;2023-02-28T03:45:29;-1.50;99.90
53498;DHT22;39382;47.168;16.008;2023-02-28T03:48:25;-1.40;99.90
53498;DHT22;39382;47.168;16.008;2023-02-28T03:50:53;-1.40;99.90
53498;DHT22;39382;47.168;16.008;2023-02-28T03:53:35;-1.40;99.90
53498;DHT22;39382;47.168;16.008;2023-02-28T03:56:06;-1.40;99.90
53498;DHT22;39382;47.168;16.008;2023-02-28T04:01:39;-1.30;99.90
53498;DHT22;39382;47.168;16.008;2023-02-28T04:04:07;-1.30;99.90
53498;DHT22;39382;47.168;16.008;2023-02-28T04:06:34;-1.30;99.90
53498;DHT22;39382;47.168;16.008;2023-02-28T04:09:00;-1.30;99.90
53498;DHT22;39382;47.168;16.008;2023-02-28T04:11:51;-1.30;99.90
53498;DHT22;39382;47.168;16.008;2023-02-28T04:14:17;-1.20;99.90
53498;DHT22;39382;47.168;16.008;2023-02-28T04:16:43;-1.30;99.90
53498;DHT22;39382;47.168;16.008;2023-02-28T04:19:11;-1.20;99.90
53498;DHT22;39382;47.168;16.008;2023-02-28T04:21:46;-1.10;99.90
53498;DHT22;39382;47.168;16.008;2023-02-28T04:24:18;-1.10;99.90
53498;DHT22;39382;47.168;16.008;2023-02-28T04:26:50;-1.10;99.90
53498;DHT22;39382;47.168;16.008;2023-02-28T04:29:38;-1.10;99.90
53498;DHT22;39382;47.168;16.008;2023-02-28T04:32:04;-1.00;99.90
53498;DHT22;39382;47.168;16.008;2023-02-28T04:34:31;-1.00;99.90
53498;DHT22;39382;47.168;16.008;2023-02-28T04:36:57;-1.00;99.90
53498;DHT22;39382;47.168;16.008;2023-02-28T04:39:24;-1.00;99.90
53498;DHT22;39382;47.168;16.008;2023-02-28T04:41:50;-0.90;99.90
53498;DHT22;39382;47.168;16.008;2023-02-28T04:44:16;-1.00;99.90
53498;DHT22;39382;47.168;16.008;2023-02-28T04:46:42;-1.00;99.90
53498;DHT22;39382;47.168;16.008;2023-02-28T04:49:10;-0.90;99.90
53498;DHT22;39382;47.168;16.008;2023-02-28T04:51:37;-1.00;99.90
53498;DHT22;39382;47.168;16.008;2023-02-28T04:54:02;-1.00;99.90
53498;DHT22;39382;47.168;16.008;2023-02-28T04:56:28;-0.90;99.90
53498;DHT22;39382;47.168;16.008;2023-02-28T04:58:54;-0.90;99.90
53498;DHT22;39382;47.168;16.008;2023-02-28T05:01:25;-0.90;99.90
53498;DHT22;39382;47.168;16.008;2023-02-28T05:03:52;-0.50;99.90
53498;DHT22;39382;47.168;16.008;2023-02-28T05:06:19;-0.70;99.90
53498;DHT22;39382;47.168;16.008;2023-02-28T05:08:45;-0.90;99.90
53498;DHT22;39382;47.168;16.008;2023-02-28T05:11:26;0.10;99.90
53498;DHT22;39382;47.168;16.008;2023-02-28T05:13:54;-0.80;99.90
53498;DHT22;39382;47.168;16.008;2023-02-28T05:16:20;-0.70;99.90
53498;DHT22;39382;47.168;16.008;2023-02-28T05:18:46;-0.70;99.90
53498;DHT22;39382;47.168;16.008;2023-02-28T05:21:35;-0.70;99.90
53498;DHT22;39382;47.168;16.008;2023-02-28T05:24:03;-0.60;99.90
53498;DHT22;39382;47.168;16.008;2023-02-28T05:26:29;-0.60;99.90
53498;DHT22;39382;47.168;16.008;2023-02-28T05:28:56;0.20;99.90
53498;DHT22;39382;47.168;16.008;2023-02-28T05:31:22;0.90;99.90
53498;DHT22;39382;47.168;16.008;2023-02-28T05:33:48;0.70;99.90
53498;DHT22;39382;47.168;16.008;2023-02-28T05:36:14;0.80;99.90
53498;DHT22;39382;47.168;16.008;2023-02-28T05:38:39;0.80;99.90
53498;DHT22;39382;47.168;16.008;2023-02-28T05:41:09;0.10;99.90
53498;DHT22;39382;47.168;16.008;2023-02-28T05:43:36;0.20;99.90
53498;DHT22;39382;47.168;16.008;2023-02-28T05:46:06;0.50;99.90
53498;DHT22;39382;47.168;16.008;2023-02-28T05:48:34;-0.30;99.90
53498;DHT22;39382;47.168;16.008;2023-02-28T05:51:00;-0.40;99.90
53498;DHT22;39382;47.168;16.008;2023-02-28T05:53:26;-0.40;99.90
53498;DHT22;39382;47.168;16.008;2023-02-28T05:55:52;-0.10;99.90
53498;DHT22;39382;47.168;16.008;2023-02-28T05:58:18;0.40;99.90
53498;DHT22;39382;47.168;16.008;2023-02-28T06:00:44;-0.50;99.90
53498;DHT22;39382;47.168;16.008;2023-02-28T06:03:09;-0.40;99.90
53498;DHT22;39382;47.168;16.008;2023-02-28T06:05:35;-0.40;99.90
53498;DHT22;39382;47.168;16.008;2023-02-28T06:08:01;-0.40;99.90
53498;DHT22;39382;47.168;16.008;2023-02-28T06:10:26;-0.40;99.90
53498;DHT22;39382;47.168;16.008;2023-02-28T06:12:52;-0.40;99.90
53498;DHT22;39382;47.168;16.008;2023-02-28T06:15:17;0.50;99.90
53498;DHT22;39382;47.168;16.008;2023-02-28T06:17:44;-0.30;99.90
53498;DHT22;39382;47.168;16.008;2023-02-28T06:20:11;-0.20;99.90
53498;DHT22;39382;47.168;16.008;2023-02-28T06:22:40;-0.10;99.90
53498;DHT22;39382;47.168;16.008;2023-02-28T06:25:06;-0.10;99.90
53498;DHT22;39382;47.168;16.008;2023-02-28T06:27:33;-0.10;99.90
53498;DHT22;39382;47.168;16.008;2023-02-28T06:29:59;-0.10;99.90
53498;DHT22;39382;47.168;16.008;2023-02-28T06:32:25;-0.10;99.90
53498;DHT22;39382;47.168;16.008;2023-02-28T06:34:51;0.00;99.90
53498;DHT22;39382;47.168;16.008;2023-02-28T06:37:17;0.00;99.90
53498;DHT22;39382;47.168;16.008;2023-02-28T06:39:43;0.10;99.90
53498;DHT22;39382;47.168;16.008;2023-02-28T06:42:09;0.00;99.90
53498;DHT22;39382;47.168;16.008;2023-02-28T06:44:35;0.00;99.90
53498;DHT22;39382;47.168;16.008;2023-02-28T06:47:01;0.00;99.90
53498;DHT22;39382;47.168;16.008;2023-02-28T06:49:29;0.00;99.90
53498;DHT22;39382;47.168;16.008;2023-02-28T06:51:55;0.00;99.90
53498;DHT22;39382;47.168;16.008;2023-02-28T06:54:21;0.10;99.90
53498;DHT22;39382;47.168;16.008;2023-02-28T06:56:46;0.20;99.90
53498;DHT22;39382;47.168;16.008;2023-02-28T06:59:12;0.30;99.90
53498;DHT22;39382;47.168;16.008;2023-02-28T07:01:39;0.20;99.90
53498;DHT22;39382;47.168;16.008;2023-02-28T07:04:05;0.20;99.90
53498;DHT22;39382;47.168;16.008;2023-02-28T07:06:31;0.40;99.90
53498;DHT22;39382;47.168;16.008;2023-02-28T07:08:56;0.60;99.90
53498;DHT22;39382;47.168;16.008;2023-02-28T07:11:24;0.50;99.90
53498;DHT22;39382;47.168;16.008;2023-02-28T07:13:51;0.30;99.90
53498;DHT22;39382;47.168;16.008;2023-02-28T07:16:17;0.30;99.90
53498;DHT22;39382;47.168;16.008;2023-02-28T07:18:43;0.30;99.90
53498;DHT22;39382;47.168;16.008;2023-02-28T07:21:09;0.50;99.90
53498;DHT22;39382;47.168;16.008;2023-02-28T07:23:36;0.60;99.90
53498;DHT22;39382;47.168;16.008;2023-02-28T07:26:06;0.30;99.90
53498;DHT22;39382;47.168;16.008;2023-02-28T07:28:32;0.40;99.90
53498;DHT22;39382;47.168;16.008;2023-02-28T07:31:06;0.50;99.90
53498;DHT22;39382;47.168;16.008;2023-02-28T07:33:33;0.50;99.90
53498;DHT22;39382;47.168;16.008;2023-02-28T07:36:07;0.50;99.90
53498;DHT22;39382;47.168;16.008;2023-02-28T07:38:35;0.50;99.90
53498;DHT22;39382;47.168;16.008;2023-02-28T07:41:01;0.50;99.90
53498;DHT22;39382;47.168;16.008;2023-02-28T07:43:30;0.50;99.90
53498;DHT22;39382;47.168;16.008;2023-02-28T07:46:00;1.10;99.90
53498;DHT22;39382;47.168;16.008;2023-02-28T07:48:26;0.60;99.90
53498;DHT22;39382;47.168;16.008;2023-02-28T07:50:56;0.60;99.90
53498;DHT22;39382;47.168;16.008;2023-02-28T07:53:22;0.60;99.90
53498;DHT22;39382;47.168;16.008;2023-02-28T07:55:47;0.60;99.90
53498;DHT22;39382;47.168;16.008;2023-02-28T07:58:13;0.50;99.90
53498;DHT22;39382;47.168;16.008;2023-02-28T08:00:39;0.70;99.90
53498;DHT22;39382;47.168;16.008;2023-02-28T08:03:04;1.20;99.90
53498;DHT22;39382;47.168;16.008;2023-02-28T08:05:30;0.70;99.90
53498;DHT22;39382;47.168;16.008;2023-02-28T08:07:56;0.60;99.90
53498;DHT22;39382;47.168;16.008;2023-02-28T08:10:22;0.50;99.90
53498;DHT22;39382;47.168;16.008;2023-02-28T08:12:47;1.30;99.90
53498;DHT22;39382;47.168;16.008;2023-02-28T08:15:13;0.50;99.90
53498;DHT22;39382;47.168;16.008;2023-02-28T08:17:39;0.60;99.90
53498;DHT22;39382;47.168;16.008;2023-02-28T08:20:05;1.00;99.90
53498;DHT22;39382;47.168;16.008;2023-02-28T08:22:31;0.60;99.90
53498;DHT22;39382;47.168;16.008;2023-02-28T08:24:56;0.70;99.90
53498;DHT22;39382;47.168;16.008;2023-02-28T08:27:22;1.00;99.90
53498;DHT22;39382;47.168;16.008;2023-02-28T08:29:48;0.90;99.90
53498;DHT22;39382;47.168;16.008;2023-02-28T08:32:13;0.90;99.90
53498;DHT22;39382;47.168;16.008;2023-02-28T08:34:39;1.30;99.90
53498;DHT22;39382;47.168;16.008;2023-02-28T08:37:06;1.10;99.90
53498;DHT22;39382;47.168;16.008;2023-02-28T08:39:34;1.00;99.90
53498;DHT22;39382;47.168;16.008;2023-02-28T08:42:01;1.00;99.90
53498;DHT22;39382;47.168;16.008;2023-02-28T08:44:26;0.90;99.90
53498;DHT22;39382;47.168;16.008;2023-02-28T08:46:52;1.00;99.90
53498;DHT22;39382;47.168;16.008;2023-02-28T08:49:18;1.00;99.90
53498;DHT22;39382;47.168;16.008;2023-02-28T08:51:44;1.00;99.90
53498;DHT22;39382;47.168;16.008;2023-02-28T08:54:10;1.20;99.90
53498;DHT22;39382;47.168;16.008;2023-02-28T08:56:38;1.10;99.90
53498;DHT22;39382;47.168;16.008;2023-02-28T08:59:04;1.20;99.90
53498;DHT22;39382;47.168;16.008;2023-02-28T09:01:30;1.20;99.90
53498;DHT22;39382;47.168;16.008;2023-02-28T09:03:57;1.30;99.90
53498;DHT22;39382;47.168;16.008;2023-02-28T09:06:24;1.20;99.90
53498;DHT22;39382;47.168;16.008;2023-02-28T09:08:51;1.30;99.90
53498;DHT22;39382;47.168;16.008;2023-02-28T09:11:17;1.20;99.90
53498;DHT22;39382;47.168;16.008;2023-02-28T09:13:44;1.20;99.90
53498;DHT22;39382;47.168;16.008;2023-02-28T09:16:12;1.10;99.90
53498;DHT22;39382;47.168;16.008;2023-02-28T09:18:38;1.20;99.90
53498;DHT22;39382;47.168;16.008;2023-02-28T09:21:09;1.20;99.90
53498;DHT22;39382;47.168;16.008;2023-02-28T09:23:36;1.30;99.90
53498;DHT22;39382;47.168;16.008;2023-02-28T09:26:04;1.30;99.90
53498;DHT22;39382;47.168;16.008;2023-02-28T09:28:30;1.30;99.90
53498;DHT22;39382;47.168;16.008;2023-02-28T09:30:55;1.40;99.90
53498;DHT22;39382;47.168;16.008;2023-02-28T09:33:23;1.20;99.90
53498;DHT22;39382;47.168;16.008;2023-02-28T09:35:49;1.30;99.90
53498;DHT22;39382;47.168;16.008;2023-02-28T09:38:16;1.20;99.90
53498;DHT22;39382;47.168;16.008;2023-02-28T09:40:52;1.30;99.90
53498;DHT22;39382;47.168;16.008;2023-02-28T09:43:20;1.40;99.90
53498;DHT22;39382;47.168;16.008;2023-02-28T09:48:33;1.40;99.90
53498;DHT22;39382;47.168;16.008;2023-02-28T09:51:12;1.40;99.90
53498;DHT22;39382;47.168;16.008;2023-02-28T09:53:41;1.40;99.90
53498;DHT22;39382;47.168;16.008;2023-02-28T09:56:36;1.60;99.90
53498;DHT22;39382;47.168;16.008;2023-02-28T09:59:15;1.50;99.90
53498;DHT22;39382;47.168;16.008;2023-02-28T10:04:51;1.50;99.90
53498;DHT22;39382;47.168;16.008;2023-02-28T10:10:36;1.60;99.90
53498;DHT22;39382;47.168;16.008;2023-02-28T10:13:27;1.70;99.90
53498;DHT22;39382;47.168;16.008;2023-02-28T10:15:58;1.70;99.90
53498;DHT22;39382;47.168;16.008;2023-02-28T10:18:28;1.70;99.90
53498;DHT22;39382;47.168;16.008;2023-02-28T10:20:56;1.70;99.90
53498;DHT22;39382;47.168;16.008;2023-02-28T10:23:34;1.80;99.90
53498;DHT22;39382;47.168;16.008;2023-02-28T10:26:11;1.90;99.90
53498;DHT22;39382;47.168;16.008;2023-02-28T10:28:38;1.90;99.90
53498;DHT22;39382;47.168;16.008;2023-02-28T10:31:04;1.90;99.90
53498;DHT22;39382;47.168;16.008;2023-02-28T10:33:34;1.90;99.90
53498;DHT22;39382;47.168;16.008;2023-02-28T10:36:01;1.90;99.90
53498;DHT22;39382;47.168;16.008;2023-02-28T10:38:32;2.00;99.90
53498;DHT22;39382;47.168;16.008;2023-02-28T10:41:09;2.00;99.90
53498;DHT22;39382;47.168;16.008;2023-02-28T10:43:37;2.00;99.80
53498;DHT22;39382;47.168;16.008;2023-02-28T10:48:38;2.20;99.40
53498;DHT22;39382;47.168;16.008;2023-02-28T10:51:08;2.20;99.30
53498;DHT22;39382;47.168;16.008;2023-02-28T10:53:38;2.20;99.10
53498;DHT22;39382;47.168;16.008;2023-02-28T10:58:56;2.20;99.40
53498;DHT22;39382;47.168;16.008;2023-02-28T11:03:50;2.20;99.00
53498;DHT22;39382;47.168;16.008;2023-02-28T11:06:25;2.20;99.20
53498;DHT22;39382;47.168;16.008;2023-02-28T11:08:56;2.30;99.40
53498;DHT22;39382;47.168;16.008;2023-02-28T11:11:25;2.30;99.30
53498;DHT22;39382;47.168;16.008;2023-02-28T11:14:04;2.20;99.40
53498;DHT22;39382;47.168;16.008;2023-02-28T11:16:37;2.40;99.60
53498;DHT22;39382;47.168;16.008;2023-02-28T11:19:06;2.60;99.20
53498;DHT22;39382;47.168;16.008;2023-02-28T11:21:34;2.60;98.80
53498;DHT22;39382;47.168;16.008;2023-02-28T11:24:28;2.60;99.10
53498;DHT22;39382;47.168;16.008;2023-02-28T11:26:54;2.70;99.90
53498;DHT22;39382;47.168;16.008;2023-02-28T11:29:29;2.80;99.90
53498;DHT22;39382;47.168;16.008;2023-02-28T11:34:31;3.20;99.20
53498;DHT22;39382;47.168;16.008;2023-02-28T11:36:59;3.10;99.00
53498;DHT22;39382;47.168;16.008;2023-02-28T11:39:26;3.00;98.70
53498;DHT22;39382;47.168;16.008;2023-02-28T11:47:15;3.00;99.60
53498;DHT22;39382;47.168;16.008;2023-02-28T11:55:19;3.20;99.00
53498;DHT22;39382;47.168;16.008;2023-02-28T12:00:42;3.40;99.20
53498;DHT22;39382;47.168;16.008;2023-02-28T12:17:10;3.60;98.20
53498;DHT22;39382;47.168;16.008;2023-02-28T12:22:36;3.90;97.60
53498;DHT22;39382;47.168;16.008;2023-02-28T12:28:21;3.80;97.70
53498;DHT22;39382;47.168;16.008;2023-02-28T12:30:59;3.90;96.90
53498;DHT22;39382;47.168;16.008;2023-02-28T12:33:31;4.00;96.70
53498;DHT22;39382;47.168;16.008;2023-02-28T12:36:03;3.90;96.80
53498;DHT22;39382;47.168;16.008;2023-02-28T12:38:51;4.20;96.70
53498;DHT22;39382;47.168;16.008;2023-02-28T12:41:27;4.10;96.70
53498;DHT22;39382;47.168;16.008;2023-02-28T12:44:02;4.20;96.40
53498;DHT22;39382;47.168;16.008;2023-02-28T12:46:33;4.20;95.90
53498;DHT22;39382;47.168;16.008;2023-02-28T12:49:10;4.30;96.00
53498;DHT22;39382;47.168;16.008;2023-02-28T12:51:38;4.40;95.60
53498;DHT22;39382;47.168;16.008;2023-02-28T13:07:34;5.20;94.60
53498;DHT22;39382;47.168;16.008;2023-02-28T13:10:04;4.80;93.90
53498;DHT22;39382;47.168;16.008;2023-02-28T13:12:33;4.60;94.30
53498;DHT22;39382;47.168;16.008;2023-02-28T13:15:22;4.50;94.70
53498;DHT22;39382;47.168;16.008;2023-02-28T13:17:55;4.40;95.00
53498;DHT22;39382;47.168;16.008;2023-02-28T13:20:24;4.30;95.10
53498;DHT22;39382;47.168;16.008;2023-02-28T13:22:52;4.40;94.60
53498;DHT22;39382;47.168;16.008;2023-02-28T13:27:48;4.70;93.60
53498;DHT22;39382;47.168;16.008;2023-02-28T13:33:29;4.60;92.70
53498;DHT22;39382;47.168;16.008;2023-02-28T13:51:47;4.50;90.20
53498;DHT22;39382;47.168;16.008;2023-02-28T14:00:18;4.50;87.50
53498;DHT22;39382;47.168;16.008;2023-02-28T14:06:08;4.40;86.30
53498;DHT22;39382;47.168;16.008;2023-02-28T14:08:35;4.40;86.60
53498;DHT22;39382;47.168;16.008;2023-02-28T14:11:28;4.10;86.20
53498;DHT22;39382;47.168;16.008;2023-02-28T14:13:54;4.20;86.80
53498;DHT22;39382;47.168;16.008;2023-02-28T14:16:34;4.30;88.30
53498;DHT22;39382;47.168;16.008;2023-02-28T14:19:25;4.40;87.80
53498;DHT22;39382;47.168;16.008;2023-02-28T14:30:56;4.50;86.10
53498;DHT22;39382;47.168;16.008;2023-02-28T14:38:52;4.80;84.70
53498;DHT22;39382;47.168;16.008;2023-02-28T14:41:39;5.00;82.50
53498;DHT22;39382;47.168;16.008;2023-02-28T14:44:15;4.90;82.80
53498;DHT22;39382;47.168;16.008;2023-02-28T14:46:42;4.90;82.30
53498;DHT22;39382;47.168;16.008;2023-02-28T14:49:32;4.70;82.80
53498;DHT22;39382;47.168;16.008;2023-02-28T14:52:28;4.80;84.10
53498;DHT22;39382;47.168;16.008;2023-02-28T14:57:29;4.90;84.60
53498;DHT22;39382;47.168;16.008;2023-02-28T15:02:36;4.80;85.60
53498;DHT22;39382;47.168;16.008;2023-02-28T15:07:44;4.80;86.30
53498;DHT22;39382;47.168;16.008;2023-02-28T15:10:24;4.90;85.70
53498;DHT22;39382;47.168;16.008;2023-02-28T15:12:58;4.80;85.80
53498;DHT22;39382;47.168;16.008;2023-02-28T15:15:42;4.70;86.60
53498;DHT22;39382;47.168;16.008;2023-02-28T15:21:03;4.50;88.00
53498;DHT22;39382;47.168;16.008;2023-02-28T15:23:32;4.40;88.00
53498;DHT22;39382;47.168;16.008;2023-02-28T15:26:00;4.50;88.20
53498;DHT22;39382;47.168;16.008;2023-02-28T15:28:26;4.50;89.00
53498;DHT22;39382;47.168;16.008;2023-02-28T15:31:03;4.60;90.30
53498;DHT22;39382;47.168;16.008;2023-02-28T15:33:55;4.50;89.50
53498;DHT22;39382;47.168;16.008;2023-02-28T15:36:25;4.50;89.80
53498;DHT22;39382;47.168;16.008;2023-02-28T15:38:53;4.40;90.00
53498;DHT22;39382;47.168;16.008;2023-02-28T15:41:38;4.40;90.40
53498;DHT22;39382;47.168;16.008;2023-02-28T15:47:02;4.20;90.20
53498;DHT22;39382;47.168;16.008;2023-02-28T15:52:16;4.00;90.20
53498;DHT22;39382;47.168;16.008;2023-02-28T15:54:43;3.90;90.20
53498;DHT22;39382;47.168;16.008;2023-02-28T15:57:21;3.90;90.50
53498;DHT22;39382;47.168;16.008;2023-02-28T15:59:59;3.90;90.50
53498;DHT22;39382;47.168;16.008;2023-02-28T16:02:35;3.80;90.50
53498;DHT22;39382;47.168;16.008;2023-02-28T16:07:41;3.70;90.60
53498;DHT22;39382;47.168;16.008;2023-02-28T16:10:08;3.70;90.60
53498;DHT22;39382;47.168;16.008;2023-02-28T16:12:36;3.70;90.70
53498;DHT22;39382;47.168;16.008;2023-02-28T16:15:07;3.80;90.80
53498;DHT22;39382;47.168;16.008;2023-02-28T16:17:35;3.90;91.60
53498;DHT22;39382;47.168;16.008;2023-02-28T16:20:16;3.90;92.00
53498;DHT22;39382;47.168;16.008;2023-02-28T16:22:42;3.90;92.30
53498;DHT22;39382;47.168;16.008;2023-02-28T16:25:16;3.80;92.50
53498;DHT22;39382;47.168;16.008;2023-02-28T16:27:43;3.70;92.80
53498;DHT22;39382;47.168;16.008;2023-02-28T16:30:17;3.50;93.20
53498;DHT22;39382;47.168;16.008;2023-02-28T16:32:44;3.40;93.50
53498;DHT22;39382;47.168;16.008;2023-02-28T16:35:10;5.40;99.90
53498;DHT22;39382;47.168;16.008;2023-02-28T16:37:36;5.20;95.90
53498;DHT22;39382;47.168;16.008;2023-02-28T16:40:03;4.80;93.60
53498;DHT22;39382;47.168;16.008;2023-02-28T16:42:29;4.30;93.50
53498;DHT22;39382;47.168;16.008;2023-02-28T16:44:56;3.80;94.00
53498;DHT22;39382;47.168;16.008;2023-02-28T16:47:21;3.50;94.70
53498;DHT22;39382;47.168;16.008;2023-02-28T16:49:47;3.10;95.40
53498;DHT22;39382;47.168;16.008;2023-02-28T16:52:14;2.70;96.10
53498;DHT22;39382;47.168;16.008;2023-02-28T16:54:40;2.60;97.00
53498;DHT22;39382;47.168;16.008;2023-02-28T16:57:17;2.30;97.70
53498;DHT22;39382;47.168;16.008;2023-02-28T16:59:45;2.00;98.60
53498;DHT22;39382;47.168;16.008;2023-02-28T17:02:15;1.90;99.30
53498;DHT22;39382;47.168;16.008;2023-02-28T17:04:42;1.60;99.80
53498;DHT22;39382;47.168;16.008;2023-02-28T17:07:13;1.50;99.90
53498;DHT22;39382;47.168;16.008;2023-02-28T17:09:39;1.30;99.90
53498;DHT22;39382;47.168;16.008;2023-02-28T17:12:06;1.20;99.90
53498;DHT22;39382;47.168;16.008;2023-02-28T17:14:32;1.10;99.90
53498;DHT22;39382;47.168;16.008;2023-02-28T17:16:57;1.10;99.90
53498;DHT22;39382;47.168;16.008;2023-02-28T17:19:23;1.20;99.90
53498;DHT22;39382;47.168;16.008;2023-02-28T17:21:48;1.10;99.90
53498;DHT22;39382;47.168;16.008;2023-02-28T17:24:14;0.90;99.90
53498;DHT22;39382;47.168;16.008;2023-02-28T17:26:41;0.80;99.90
53498;DHT22;39382;47.168;16.008;2023-02-28T17:29:19;0.80;99.90
53498;DHT22;39382;47.168;16.008;2023-02-28T17:31:46;0.60;99.90
53498;DHT22;39382;47.168;16.008;2023-02-28T17:34:12;0.40;99.90
53498;DHT22;39382;47.168;16.008;2023-02-28T17:36:44;0.40;99.90
53498;DHT22;39382;47.168;16.008;2023-02-28T17:39:12;0.40;99.90
53498;DHT22;39382;47.168;16.008;2023-02-28T17:41:45;0.30;99.90
53498;DHT22;39382;47.168;16.008;2023-02-28T17:44:11;0.10;99.90
53498;DHT22;39382;47.168;16.008;2023-02-28T17:46:36;0.50;99.90
53498;DHT22;39382;47.168;16.008;2023-02-28T17:49:03;0.60;99.90
53498;DHT22;39382;47.168;16.008;2023-02-28T17:51:28;0.00;99.90
53498;DHT22;39382;47.168;16.008;2023-02-28T17:53:54;0.10;99.90
53498;DHT22;39382;47.168;16.008;2023-02-28T17:56:22;0.40;99.90
53498;DHT22;39382;47.168;16.008;2023-02-28T17:58:49;0.00;99.90
53498;DHT22;39382;47.168;16.008;2023-02-28T18:01:15;-0.10;99.90
53498;DHT22;39382;47.168;16.008;2023-02-28T18:03:41;0.10;99.90
53498;DHT22;39382;47.168;16.008;2023-02-28T18:06:28;-0.10;99.90
53498;DHT22;39382;47.168;16.008;2023-02-28T18:08:56;-0.10;99.90
53498;DHT22;39382;47.168;16.008;2023-02-28T18:11:23;-0.20;99.90
53498;DHT22;39382;47.168;16.008;2023-02-28T18:13:53;0.40;99.90
53498;DHT22;39382;47.168;16.008;2023-02-28T18:16:20;-0.30;99.90
53498;DHT22;39382;47.168;16.008;2023-02-28T18:18:48;-0.40;99.90
53498;DHT22;39382;47.168;16.008;2023-02-28T18:21:15;-0.50;99.90